• Join FlightAware (Why Join?)
  • Login
  • US Flag 
12:20AM EDT


 

Airport Tracker/Info


-or-


 

Live Flight TrackerFlight Track Log ✈ VH-RUT ✈ 24-Sep-2013 ✈ YBCG / OOL - YLTT

Flight Track Log - Related Links

Times and Time Zones

All times are in EDT time to prevent confusion due to time zone crossing. See the VH-RUT flight status page for this flight to view local times or setup timezone preferences in your user account.

Time Position Orientation Groundspeed Altitude Reporting Facility
EDT Latitude Longitude Course Direction KTS MPH feet Rate Location/Type
04:51PM -28.1520 153.4982 345° North 76 87 600  Level Aus ATC (RADAR)
04:52PM -28.1177 153.4879 345° North 107 123 500 -60 Descending Aus ATC (RADAR)
04:53PM -28.0940 153.4754 335° Northwest 114 131 500 -60 Level Aus ATC (RADAR)
04:54PM -28.0574 153.4613 341° North 118 136 400 -60 Descending Aus ATC (RADAR)
04:55PM -28.0196 153.4535 350° North 118 136 400  Level Aus ATC (RADAR)
04:56PM -27.9856 153.4458 349° North 114 131 400  Level Aus ATC (RADAR)
04:57PM -27.9616 153.4234 320° Northwest 108 124 400  Level Aus ATC (RADAR)
04:58PM -27.9321 153.4175 350° North 114 131 400 60 Level Aus ATC (RADAR)
04:59PM -27.8978 153.4189 North 114 131 600 60 Climbing Aus ATC (RADAR)
05:01PM -27.8544 153.4130 353° North 111 128 600  Level Aus ATC (RADAR)
05:02PM -27.8200 153.4045 348° North 115 132 700 -120 Climbing Aus ATC (RADAR)
05:02PM -27.8119 153.4034 353° North 116 133 500  Descending Aus ATC (RADAR)
05:03PM -27.7849 153.4043 North 115 132 700 240 Climbing Aus ATC (RADAR)
05:03PM -27.7669 153.4055 North 111 128 900 300 Climbing Aus ATC (RADAR)
05:04PM -27.7470 153.4056 360° North 105 121 1,100 180 Climbing Aus ATC (RADAR)
05:04PM -27.7346 153.4047 356° North 106 122 1,100 -120 Level Aus ATC (RADAR)
05:06PM -27.6975 153.4036 358° North 117 135 1,000 -120 Descending Aus ATC (RADAR)
05:06PM -27.6837 153.4046 North 118 136 1,000 60 Level Aus ATC (RADAR)
05:07PM -27.6645 153.4044 360° North 119 137 1,100  Climbing Aus ATC (RADAR)
05:07PM -27.6423 153.4036 358° North 121 139 1,000 -120 Descending Aus ATC (RADAR)
05:08PM -27.6196 153.4027 358° North 123 142 1,000  Level Aus ATC (RADAR)
05:09PM -27.5999 153.4005 354° North 122 140 1,000  Level Aus ATC (RADAR)
05:09PM -27.5807 153.3998 358° North 118 136 1,000  Level Aus ATC (RADAR)
05:10PM -27.5640 153.3986 356° North 120 138 1,000  Level Aus ATC (RADAR)
05:11PM -27.5260 153.3965 357° North 118 136 1,000  Level Aus ATC (RADAR)
05:11PM -27.5148 153.3962 358° North 119 137 1,000  Level Aus ATC (RADAR)
05:12PM -27.4925 153.3959 359° North 118 136 1,000  Level Aus ATC (RADAR)
05:12PM -27.4705 153.3954 359° North 118 136 1,000  Level Aus ATC (RADAR)
05:13PM -27.4568 153.3950 359° North 118 136 1,000  Level Aus ATC (RADAR)
05:13PM -27.4373 153.3938 357° North 120 138 1,000 -120 Level Aus ATC (RADAR)
05:14PM -27.4152 153.3915 355° North 120 138 900 -120 Descending Aus ATC (RADAR)
05:15PM -27.3957 153.3891 354° North 121 139 900  Level Aus ATC (RADAR)
05:16PM -27.3657 153.3846 352° North 119 137 900  Level Aus ATC (RADAR)
05:16PM -27.3545 153.3832 354° North 121 139 900 -120 Level Aus ATC (RADAR)
05:17PM -27.3356 153.3817 356° North 118 136 800 -120 Descending Aus ATC (RADAR)
05:17PM -27.3136 153.3794 355° North 117 135 800 120 Level Aus ATC (RADAR)
05:18PM -27.2949 153.3767 353° North 115 132 1,000 120 Climbing Aus ATC (RADAR)
05:18PM -27.2767 153.3735 351° North 112 129 1,000  Level Aus ATC (RADAR)
05:19PM -27.2612 153.3697 348° North 114 131 1,000  Level Aus ATC (RADAR)
05:19PM -27.2429 153.3644 346° North 116 133 1,000  Level Aus ATC (RADAR)
05:21PM -27.1957 153.3560 351° North 115 132 1,000  Level Aus ATC (RADAR)
05:22PM -27.1725 153.3675 24° Northeast 122 140 1,000  Level Aus ATC (RADAR)
05:22PM -27.1656 153.3733 37° Northeast 123 142 1,000  Level Aus ATC (RADAR)
05:23PM -27.1443 153.3718 356° North 113 130 1,000  Level Aus ATC (RADAR)
05:23PM -27.1260 153.3664 345° North 116 133 1,000 -120 Level Aus ATC (RADAR)
05:24PM -27.1093 153.3582 337° Northwest 113 130 900 -120 Descending Aus ATC (RADAR)
05:24PM -27.0909 153.3538 348° North 115 132 900  Level Aus ATC (RADAR)
05:25PM -27.0746 153.3513 352° North 118 136 900 180 Level Aus ATC (RADAR)
05:26PM -27.0383 153.3449 351° North 111 128 1,200 60 Climbing Aus ATC (RADAR)
05:27PM -27.0210 153.3411 349° North 109 125 1,100 -180 Descending Aus ATC (RADAR)
05:27PM -27.0028 153.3371 349° North 114 131 1,000 -180 Descending Aus ATC (RADAR)
05:28PM -26.9845 153.3327 348° North 115 132 900 -120 Descending Aus ATC (RADAR)
05:28PM -26.9689 153.3289 348° North 115 132 900  Level Aus ATC (RADAR)
05:29PM -26.9507 153.3250 349° North 114 131 900 120 Level Aus ATC (RADAR)
05:29PM -26.9334 153.3212 349° North 108 124 1,100 60 Climbing Aus ATC (RADAR)
05:30PM -26.9161 153.3174 349° North 109 125 1,000 -60 Descending Aus ATC (RADAR)
05:31PM -26.8740 153.3087 350° North 109 125 1,000  Level Aus ATC (RADAR)
05:32PM -26.8616 153.3058 348° North 109 125 1,000 -120 Level Aus ATC (RADAR)
05:32PM -26.8469 153.3019 346° North 109 125 900  Descending Aus ATC (RADAR)
05:33PM -26.8245 153.2965 348° North 109 125 1,000 180 Climbing Aus ATC (RADAR)
05:34PM -26.8083 153.2932 350° North 102 117 1,200 180 Climbing Aus ATC (RADAR)
05:34PM -26.7944 153.2921 356° North 100 115 1,200 -120 Level Aus ATC (RADAR)
05:35PM -26.7777 153.2888 350° North 104 120 1,100 -120 Descending Aus ATC (RADAR)
05:36PM -26.7439 153.2798 347° North 108 124 1,000 -120 Descending Aus ATC (RADAR)
05:36PM -26.7321 153.2765 346° North 106 122 1,000 -120 Level Aus ATC (RADAR)
05:37PM -26.7197 153.2743 351° North 107 123 900 -120 Descending Aus ATC (RADAR)
05:37PM -26.7026 153.2696 346° North 108 124 900  Level Aus ATC (RADAR)
05:38PM -26.6805 153.2632 346° North 109 125 900 60 Level Aus ATC (RADAR)
05:39PM -26.6641 153.2607 352° North 102 117 1,000 120 Climbing Aus ATC (RADAR)
05:39PM -26.6473 153.2564 347° North 103 119 1,100 60 Climbing Aus ATC (RADAR)
05:40PM -26.6333 153.2525 346° North 104 120 1,100 -60 Level Aus ATC (RADAR)
05:41PM -26.5930 153.2440 349° North 103 119 1,000 -60 Descending Aus ATC (RADAR)
05:42PM -26.5831 153.2425 352° North 105 121 1,000  Level Aus ATC (RADAR)
05:42PM -26.5710 153.2409 353° North 105 121 1,000  Level Aus ATC (RADAR)
05:43PM -26.5548 153.2372 348° North 103 119 1,000 -120 Level Aus ATC (RADAR)
05:43PM -26.5451 153.2231 308° West 86 99 900 -120 Descending Aus ATC (RADAR)
05:44PM -26.5291 153.2119 328° Northwest 109 125 900 60 Level Aus ATC (RADAR)
05:45PM -26.5083 153.2142 North 99 114 1,000 60 Climbing Aus ATC (RADAR)
05:45PM -26.4973 153.2139 359° North 95 109 1,000  Level Aus ATC (RADAR)
05:47PM -26.4537 153.2132 359° North 100 115 1,100  Climbing Aus ATC (RADAR)
05:47PM -26.4423 153.2120 355° North 99 114 1,100 -120 Level Aus ATC (RADAR)
05:48PM -26.4273 153.2059 340° North 97 112 1,000 60 Descending Aus ATC (RADAR)
05:48PM -26.4091 153.2005 345° North 99 114 1,200 480 Climbing Aus ATC (RADAR)
05:49PM -26.3949 153.1979 351° North 91 105 1,600 600 Climbing Aus ATC (RADAR)
05:49PM -26.3888 153.1966 349° North 91 105 1,700 420 Climbing Aus ATC (RADAR)
05:50PM -26.3613 153.1914 350° North 91 105 2,200 420 Climbing Aus ATC (RADAR)
05:52PM -26.3265 153.1824 347° North 96 110 2,800 420 Climbing Aus ATC (RADAR)
05:52PM -26.3154 153.1805 351° North 96 110 3,000 360 Climbing Aus ATC (RADAR)
05:53PM -26.2989 153.1776 351° North 101 116 3,200 420 Climbing Aus ATC (RADAR)
05:53PM -26.2781 153.1719 346° North 102 117 3,600 480 Climbing Aus ATC (RADAR)
05:54PM -26.2617 153.1672 346° North 103 119 3,900 420 Climbing Aus ATC (RADAR)
05:54PM -26.2450 153.1651 353° North 104 120 4,100 300 Climbing Aus ATC (RADAR)
05:55PM -26.2275 153.1621 351° North 108 124 4,300 360 Climbing Aus ATC (RADAR)
05:56PM -26.1872 153.1530 348° North 113 130 4,800 240 Climbing Aus ATC (RADAR)
05:57PM -26.1700 153.1496 350° North 124 143 4,800  Level Aus ATC (RADAR)
05:57PM -26.1549 153.1452 345° North 133 153 4,800 -240 Level Aus ATC (RADAR)
05:58PM -26.1331 153.1414 351° North 135 155 4,600 -300 Descending Aus ATC (RADAR)
05:58PM -26.1121 153.1373 350° North 132 152 4,500  Descending Aus ATC (RADAR)
05:59PM -26.0921 153.1310 344° North 128 147 4,600 60 Climbing Aus ATC (RADAR)
05:59PM -26.0741 153.1270 349° North 130 150 4,600  Level Aus ATC (RADAR)
06:00PM -26.0499 153.1203 346° North 134 154 4,600  Level Aus ATC (RADAR)
06:01PM -26.0030 153.1073 346° North 130 150 4,600 -120 Level Aus ATC (RADAR)
06:02PM -25.9827 153.1018 346° North 129 148 4,400 -120 Descending Aus ATC (RADAR)
06:02PM -25.9743 153.0984 340° North 128 147 4,500 240 Climbing Aus ATC (RADAR)
06:03PM -25.9550 153.0915 342° North 125 144 4,600 60 Climbing Aus ATC (RADAR)
06:04PM -25.9323 153.0857 347° North 125 144 4,600  Level Aus ATC (RADAR)
06:04PM -25.9119 153.0822 351° North 126 145 4,600  Level Aus ATC (RADAR)
06:05PM -25.8914 153.0783 350° North 128 147 4,600  Level Aus ATC (RADAR)
06:05PM -25.8708 153.0744 350° North 128 147 4,600  Level Aus ATC (RADAR)
06:07PM -25.8209 153.0636 349° North 128 147 4,600  Level Aus ATC (RADAR)
06:07PM -25.8061 153.0623 356° North 128 147 4,700  Climbing Aus ATC (RADAR)
06:08PM -25.7854 153.0587 351° North 136 157 4,600 -120 Descending Aus ATC (RADAR)
06:08PM -25.7627 153.0513 344° North 128 147 4,600  Level Aus ATC (RADAR)
06:09PM -25.7419 153.0471 350° North 129 148 4,600  Level Aus ATC (RADAR)
06:10PM -25.7211 153.0432 350° North 130 150 4,600  Level Aus ATC (RADAR)
06:12PM -25.6255 153.0161 346° North 124 143 4,600  Level Aus ATC (RADAR)
06:13PM -25.6049 153.0113 348° North 129 148 4,600  Level Aus ATC (RADAR)
06:16PM -25.4835 152.9920 352° North 133 153 4,700 -60 Climbing Aus ATC (RADAR)
06:21PM -25.3104 152.9619 351° North 133 153 -60 Descending Aus ATC (RADAR)
06:27PM -25.1069 152.9115 347° North 128 147 4,500 720 Climbing Aus ATC (RADAR)
06:27PM -25.0921 152.9103 356° North 127 146 4,700 60 Climbing Aus ATC (RADAR)
06:28PM -25.0706 152.9094 358° North 132 152 4,600 -120 Descending Aus ATC (RADAR)
06:29PM -25.0382 152.9016 348° North 130 150 4,600  Level Aus ATC (RADAR)
06:29PM -25.0176 152.8965 348° North 130 150 4,600  Level Aus ATC (RADAR)
06:30PM -24.9914 152.8881 344° North 129 148 4,600  Level Aus ATC (RADAR)
06:31PM -24.9761 152.8851 350° North 132 152 4,600  Level Aus ATC (RADAR)
06:32PM -24.9406 152.8772 349° North 130 150 4,600  Level Aus ATC (RADAR)
06:32PM -24.9256 152.8743 350° North 131 151 4,600  Level Aus ATC (RADAR)
06:32PM -24.9105 152.8713 350° North 131 151 4,600  Level Aus ATC (RADAR)
06:33PM -24.8893 152.8674 351° North 132 152 4,600  Level Aus ATC (RADAR)
06:34PM -24.8623 152.8618 349° North 131 151 4,600  Level Aus ATC (RADAR)
06:34PM -24.8410 152.8578 350° North 133 153 4,600 -120 Level Aus ATC (RADAR)
06:35PM -24.8132 152.8515 348° North 135 155 4,500 -120 Descending Aus ATC (RADAR)
06:35PM -24.8101 152.8509 349° North 135 155 4,500  Level Aus ATC (RADAR)
06:37PM -24.7578 152.8399 349° North 137 158 4,500 -60 Level Aus ATC (RADAR)
06:37PM -24.7440 152.8365 347° North 130 150 4,400 -180 Descending Aus ATC (RADAR)
06:37PM -24.7285 152.8337 351° North 134 154 4,400 180 Level Aus ATC (RADAR)
06:38PM -24.7078 152.8289 348° North 131 151 4,600 60 Climbing Aus ATC (RADAR)
06:39PM -24.6816 152.8221 347° North 129 148 4,500 60 Descending Aus ATC (RADAR)
06:39PM -24.6611 152.8172 348° North 129 148 4,700 60 Climbing Aus ATC (RADAR)
06:40PM -24.6319 152.8100 347° North 129 148 4,600 -120 Descending Aus ATC (RADAR)
06:40PM -24.6233 152.8082 349° North 127 146 4,600  Level Aus ATC (RADAR)
06:41PM -24.6026 152.8040 349° North 129 148 4,600 -60 Level Aus ATC (RADAR)
06:42PM -24.5477 152.7917 348° North 136 157 4,500 -120 Descending Aus ATC (RADAR)
06:43PM -24.5382 152.7897 350° North 137 158 4,400  Descending Aus ATC (RADAR)
06:43PM -24.5171 152.7849 348° North 133 153 4,500 60 Climbing Aus ATC (RADAR)
06:44PM -24.4964 152.7795 347° North 131 151 4,500 -180 Level Aus ATC (RADAR)
06:44PM -24.4744 152.7742 347° North 138 159 4,300 -360 Descending Aus ATC (RADAR)
06:45PM -24.4393 152.7662 348° North 138 159 4,000 -360 Descending Aus ATC (RADAR)
06:46PM -24.4290 152.7634 346° North 144 166 3,900 -360 Descending Aus ATC (RADAR)
06:46PM -24.4054 152.7579 348° North 148 170 3,700 -420 Descending Aus ATC (RADAR)
06:48PM -24.3543 152.7478 350° North 141 162 3,200 -360 Descending Aus ATC (RADAR)
06:48PM -24.3392 152.7449 350° North 138 159 3,100 -300 Descending Aus ATC (RADAR)
06:49PM -24.3162 152.7413 352° North 140 161 2,900 -360 Descending Aus ATC (RADAR)
06:49PM -24.2856 152.7370 353° North 136 157 2,600 -360 Descending Aus ATC (RADAR)
06:50PM -24.2632 152.7358 357° North 137 158 2,400 -300 Descending Aus ATC (RADAR)
06:51PM -24.2359 152.7329 355° North 133 153 2,200 -360 Descending Aus ATC (RADAR)
06:51PM -24.2212 152.7309 353° North 131 151 2,000 -480 Descending Aus ATC (RADAR)
06:53PM -24.1713 152.7206 349° North 129 148 1,400 -480 Descending Aus ATC (RADAR)
06:53PM -24.1576 152.7164 344° North 127 146 1,200 -540 Descending Aus ATC (RADAR)
06:53PM -24.1398 152.7097 341° North 120 138 900 -360 Descending Aus ATC (RADAR)
06:54PM -24.1132 152.6989 340° North 121 139 700 -180 Descending Aus ATC (RADAR)
06:55PM -24.1026 152.7066 33° Northeast 118 136 700 -180 Level Aus ATC (RADAR)
06:56PM -24.1242 152.7021 191° South 119 137 500 -360 Descending Aus ATC (RADAR)
06:56PM -24.1316 152.7127 128° Southeast 115 132 300 -540 Descending Aus ATC (RADAR)
06:56PM -24.1349 152.7172 129° Southeast 115 132 200 -600 Descending Aus ATC (RADAR)
06:58PM -24.1260 152.7165 356° North  Level Estimated